Time;durP1;ratioP1;P1;durP2;ratioP2;P2;SDS_P1;SDS_P2;PMS_P1;PMS_P2;Temp;Humidity;BMP_temperature;BMP_pressure;BME280_temperature;BME280_humidity;BME280_pressure;Samples;Min_cycle;Max_cycle;Signal;HPM_P1;HPM_P2
2021/12/03 00:00:18;;;;;;;1082.75;999.90;;;;;;;0.24;63.48;100173.78;691375;28;44366;-65
2021/12/03 00:00:43;;;;;;;1090.13;999.90;;;;;;;0.25;63.49;100167.47;689088;28;114994;-65
2021/12/03 00:01:08;;;;;;;1090.80;999.90;;;;;;;0.26;63.34;100170.00;688037;28;137722;-66
2021/12/03 00:01:32;;;;;;;1094.38;999.90;;;;;;;0.27;63.44;100170.88;688854;28;115297;-65
2021/12/03 00:01:53;;;;;;;1084.97;999.90;;;;;;;0.28;63.25;100167.22;692378;28;13752;-66
2021/12/03 00:02:14;;;;;;;1096.57;999.90;;;;;;;0.26;63.25;100167.34;691967;28;21563;-65
2021/12/03 00:02:36;;;;;;;1094.20;999.90;;;;;;;0.26;63.35;100163.84;691153;28;23463;-65
2021/12/03 00:02:57;;;;;;;1091.15;999.90;;;;;;;0.26;63.29;100169.16;691375;28;46383;-65
2021/12/03 00:03:20;;;;;;;1083.07;999.90;;;;;;;0.26;63.29;100163.84;691148;28;46301;-67
2021/12/03 00:03:43;;;;;;;1085.05;999.90;;;;;;;0.22;63.30;100171.25;689998;28;69390;-65
2021/12/03 00:04:04;;;;;;;1083.88;999.90;;;;;;;0.20;63.31;100170.50;691438;28;45241;-65
2021/12/03 00:04:26;;;;;;;1081.07;999.90;;;;;;;0.18;63.33;100165.31;692737;28;1392;-65
2021/12/03 00:04:47;;;;;;;1082.90;999.90;;;;;;;0.19;63.42;100166.19;692031;28;23450;-66
2021/12/03 00:05:10;;;;;;;1082.03;999.90;;;;;;;0.17;63.33;100168.94;692448;28;15739;-65
2021/12/03 00:05:31;;;;;;;1071.53;998.83;;;;;;;0.16;63.45;100169.06;690399;28;69403;-66
2021/12/03 00:05:56;;;;;;;1068.60;996.00;;;;;;;0.12;63.52;100159.66;692329;28;22381;-66
2021/12/03 00:06:18;;;;;;;1065.97;993.53;;;;;;;0.14;63.58;100171.00;688382;28;116717;-66
2021/12/03 00:06:39;;;;;;;1071.78;999.17;;;;;;;0.13;63.69;100164.84;691467;28;45151;-65
2021/12/03 00:07:00;;;;;;;1072.13;999.50;;;;;;;0.16;63.72;100172.56;691128;28;45110;-65
2021/12/03 00:07:21;;;;;;;1083.55;999.90;;;;;;;0.15;63.55;100168.22;692700;28;1649;-66
2021/12/03 00:07:44;;;;;;;1095.72;999.90;;;;;;;0.17;63.52;100168.09;688037;28;21519;-66
2021/12/03 00:08:06;;;;;;;1094.88;999.90;;;;;;;0.17;63.51;100176.06;687463;28;1029;-66
2021/12/03 00:08:28;;;;;;;1097.22;999.90;;;;;;;0.15;63.75;100172.69;687404;28;1589;-66
2021/12/03 00:08:50;;;;;;;1092.47;999.90;;;;;;;0.15;63.56;100178.00;686403;28;45406;-66
2021/12/03 00:09:11;;;;;;;1084.75;999.90;;;;;;;0.13;63.69;100178.13;688494;28;47674;-66
2021/12/03 00:09:35;;;;;;;1082.53;999.90;;;;;;;0.13;63.70;100177.28;690996;28;1743;-66
2021/12/03 00:09:57;;;;;;;1088.85;999.90;;;;;;;0.16;63.76;100185.00;688010;28;92236;-66
2021/12/03 00:10:23;;;;;;;1092.75;999.90;;;;;;;0.15;63.60;100183.31;691892;28;31284;-66
2021/12/03 00:10:49;;;;;;;1097.18;999.90;;;;;;;0.15;63.62;100183.31;690803;28;62111;-66
2021/12/03 00:11:12;;;;;;;1097.95;999.90;;;;;;;0.15;63.67;100184.16;690535;28;68966;-66
2021/12/03 00:11:34;;;;;;;1095.35;999.90;;;;;;;0.15;63.57;100176.19;691961;28;13469;-66
2021/12/03 00:11:55;;;;;;;1088.72;999.90;;;;;;;0.13;63.77;100178.13;691053;28;46127;-66
2021/12/03 00:12:17;;;;;;;1094.22;999.90;;;;;;;0.17;63.67;100189.34;692207;28;23776;-66
2021/12/03 00:12:38;;;;;;;1095.80;999.90;;;;;;;0.17;63.60;100186.69;691235;28;21539;-66
2021/12/03 00:13:00;;;;;;;1092.00;999.90;;;;;;;0.16;63.67;100187.66;691010;28;47212;-65
2021/12/03 00:13:23;;;;;;;1095.35;999.90;;;;;;;0.15;63.64;100183.31;691086;28;46363;-65
2021/12/03 00:13:44;;;;;;;1095.47;999.90;;;;;;;0.12;63.73;100188.88;690852;28;47130;-65
2021/12/03 00:14:06;;;;;;;1094.63;999.90;;;;;;;0.14;63.59;100193.09;690839;28;45469;-66
2021/12/03 00:14:28;;;;;;;1093.85;999.90;;;;;;;0.16;63.61;100190.31;691320;28;47528;-66
2021/12/03 00:14:49;;;;;;;1089.68;999.90;;;;;;;0.18;63.57;100191.03;691966;28;23746;-66
2021/12/03 00:15:11;;;;;;;1094.68;999.90;;;;;;;0.18;63.65;100196.34;691486;28;44334;-65
2021/12/03 00:15:35;;;;;;;1092.65;999.90;;;;;;;0.16;63.57;100185.00;691278;28;43210;-66
2021/12/03 00:15:57;;;;;;;1094.03;999.90;;;;;;;0.17;63.46;100192.84;690989;28;90739;-65
2021/12/03 00:16:18;;;;;;;1095.65;999.90;;;;;;;0.18;63.44;100193.69;692556;28;44459;-66
2021/12/03 00:16:39;;;;;;;1101.05;999.90;;;;;;;0.15;63.43;100189.47;693565;28;22266;-65
2021/12/03 00:17:02;;;;;;;1096.13;999.90;;;;;;;0.15;63.49;100194.78;693420;28;23709;-66
2021/12/03 00:17:23;;;;;;;1099.68;999.90;;;;;;;0.13;63.43;100194.06;689842;28;68432;-65
2021/12/03 00:17:44;;;;;;;1094.95;999.90;;;;;;;0.14;63.51;100198.41;687980;28;22401;-65
2021/12/03 00:18:06;;;;;;;1095.82;999.90;;;;;;;0.13;63.59;100193.22;690999;28;45899;-65
2021/12/03 00:18:28;;;;;;;1092.07;999.90;;;;;;;0.13;63.43;100202.03;691968;28;23504;-66
2021/12/03 00:18:49;;;;;;;1094.32;999.90;;;;;;;0.11;63.59;100198.66;691864;28;30812;-66
2021/12/03 00:19:10;;;;;;;1093.38;999.90;;;;;;;0.13;63.55;100198.53;692811;28;1656;-66
2021/12/03 00:19:33;;;;;;;1099.18;999.90;;;;;;;0.13;63.56;100193.22;690769;28;44356;-65
2021/12/03 00:19:54;;;;;;;1098.43;999.90;;;;;;;0.10;63.79;100191.66;691496;28;45276;-66
2021/12/03 00:20:16;;;;;;;1091.68;999.90;;;;;;;0.13;63.53;100202.03;691460;28;45247;-66
2021/12/03 00:20:39;;;;;;;1091.90;999.90;;;;;;;0.10;63.59;100191.66;691258;28;45255;-66
2021/12/03 00:21:04;;;;;;;1097.43;999.90;;;;;;;0.13;63.62;100202.03;691511;28;45248;-66
2021/12/03 00:21:26;;;;;;;1097.95;999.90;;;;;;;0.14;63.65;100195.75;689115;28;115316;-65
2021/12/03 00:21:47;;;;;;;1092.53;999.90;;;;;;;0.14;63.63;100194.91;690835;28;67484;-66
2021/12/03 00:22:09;;;;;;;1095.43;999.90;;;;;;;0.14;63.72;100195.75;691988;28;22215;-66
2021/12/03 00:22:31;;;;;;;1093.75;999.90;;;;;;;0.14;63.55;100195.75;692245;28;22514;-66
2021/12/03 00:22:56;;;;;;;1099.68;999.90;;;;;;;0.14;63.48;100195.75;690335;28;44213;-65
2021/12/03 00:23:18;;;;;;;1095.22;999.90;;;;;;;0.14;63.60;100194.91;687851;28;138134;-66
2021/12/03 00:23:41;;;;;;;1099.18;999.90;;;;;;;0.13;63.59;100201.19;691686;28;22361;-66
2021/12/03 00:24:02;;;;;;;1095.38;999.90;;;;;;;0.13;63.64;100195.88;688097;28;69418;-65
2021/12/03 00:24:23;;;;;;;1093.88;999.90;;;;;;;0.10;63.66;100193.47;687864;28;45271;-65
2021/12/03 00:24:44;;;;;;;1095.60;999.90;;;;;;;0.10;63.59;100189.00;690375;28;23182;-65
2021/12/03 00:25:07;;;;;;;1103.53;999.90;;;;;;;0.11;63.59;100197.78;691975;28;23400;-66
2021/12/03 00:25:28;;;;;;;1102.15;999.90;;;;;;;0.08;63.60;100190.94;687506;28;70623;-66
2021/12/03 00:25:50;;;;;;;1098.25;999.90;;;;;;;0.10;63.57;100201.44;690053;28;22400;-65
2021/12/03 00:26:11;;;;;;;1090.55;999.90;;;;;;;0.12;63.66;100196.84;692409;28;22400;-66
2021/12/03 00:26:33;;;;;;;1096.90;999.90;;;;;;;0.13;63.83;100198.53;691929;28;22349;-65
2021/12/03 00:26:54;;;;;;;1100.30;999.90;;;;;;;0.10;63.51;100190.81;689009;28;21547;-66
2021/12/03 00:27:16;;;;;;;1095.05;999.90;;;;;;;0.11;63.62;100201.31;689830;28;11927;-65
2021/12/03 00:27:37;;;;;;;1095.50;999.90;;;;;;;0.08;63.53;100193.59;683076;28;21953;-67
2021/12/03 00:27:59;;;;;;;1104.93;999.90;;;;;;;0.08;63.56;100198.03;684426;28;46302;-65
2021/12/03 00:28:20;;;;;;;1099.43;999.90;;;;;;;0.09;63.49;100202.38;687432;28;46310;-65
2021/12/03 00:28:42;;;;;;;1099.70;999.90;;;;;;;0.09;63.59;100203.22;688867;28;23453;-65
2021/12/03 00:29:04;;;;;;;1098.07;999.90;;;;;;;0.09;63.54;100194.44;691679;28;23314;-66
2021/12/03 00:29:25;;;;;;;1093.93;999.90;;;;;;;0.09;63.42;100194.44;691550;28;39775;-65
2021/12/03 00:29:46;;;;;;;1094.47;999.90;;;;;;;0.02;63.40;100186.13;692341;28;23475;-66
2021/12/03 00:30:10;;;;;;;1090.80;999.90;;;;;;;0.06;63.53;100200.81;691590;28;47262;-66
2021/12/03 00:30:32;;;;;;;1093.85;999.90;;;;;;;0.05;63.46;100198.28;689847;28;90700;-65
2021/12/03 00:30:54;;;;;;;1104.15;999.90;;;;;;;0.04;63.58;100192.13;691448;28;46328;-66
2021/12/03 00:31:15;;;;;;;1102.97;999.90;;;;;;;0.03;63.67;100195.75;691289;28;45606;-65
2021/12/03 00:31:37;;;;;;;1102.70;999.90;;;;;;;0.02;63.63;100190.56;692337;28;23481;-66
2021/12/03 00:31:58;;;;;;;1102.45;999.90;;;;;;;0.03;63.60;100200.22;691450;28;45109;-65
2021/12/03 00:32:20;;;;;;;1098.47;999.90;;;;;;;0.01;63.63;100194.19;691514;28;43783;-65
2021/12/03 00:32:41;;;;;;;1095.55;999.90;;;;;;;0.01;63.76;100202.16;691441;28;23488;-65
2021/12/03 00:33:05;;;;;;;1099.32;999.90;;;;;;;0.01;63.76;100202.16;692028;28;22568;-65
2021/12/03 00:33:28;;;;;;;1098.15;999.90;;;;;;;0.02;63.82;100203.84;689637;28;92290;-65
2021/12/03 00:33:50;;;;;;;1101.35;999.90;;;;;;;0.02;63.83;100201.19;688012;28;86813;-66
2021/12/03 00:34:11;;;;;;;1101.82;999.90;;;;;;;0.02;63.72;100198.53;690847;28;22406;-66
2021/12/03 00:34:33;;;;;;;1096.95;999.90;;;;;;;0.03;63.88;100200.22;691451;28;23106;-66
2021/12/03 00:34:54;;;;;;;1096.05;999.90;;;;;;;0.01;63.76;100199.50;688539;28;46093;-66
2021/12/03 00:35:16;;;;;;;1101.13;999.90;;;;;;;0.03;63.84;100209.03;689900;28;21534;-66
2021/12/03 00:35:37;;;;;;;1101.57;999.90;;;;;;;0.05;63.86;100199.16;690367;28;45224;-65
2021/12/03 00:36:04;;;;;;;1100.25;999.90;;;;;;;0.04;63.82;100208.06;692429;28;22425;-65
2021/12/03 00:36:29;;;;;;;1087.68;999.90;;;;;;;0.08;63.82;100204.22;690821;28;60151;-66
2021/12/03 00:36:50;;;;;;;1084.80;999.90;;;;;;;0.04;63.67;100202.75;691200;28;46453;-65
2021/12/03 00:37:11;;;;;;;1090.55;999.90;;;;;;;0.08;63.63;100203.34;691630;28;46856;-65
2021/12/03 00:37:34;;;;;;;1087.05;999.90;;;;;;;0.08;63.57;100206.00;692062;28;23367;-65
2021/12/03 00:37:55;;;;;;;1085.22;999.90;;;;;;;0.05;63.79;100204.47;666786;28;65680;-65
2021/12/03 00:38:16;;;;;;;1094.97;999.90;;;;;;;0.06;63.68;100203.47;694955;28;21539;-66
2021/12/03 00:38:41;;;;;;;1093.68;999.90;;;;;;;0.06;63.68;100214.09;694250;28;45451;-65
2021/12/03 00:39:04;;;;;;;1086.47;999.90;;;;;;;0.04;63.76;100213.38;692214;28;92236;-66
2021/12/03 00:39:26;;;;;;;1082.85;999.90;;;;;;;0.03;63.74;100211.69;692507;28;91789;-65
2021/12/03 00:39:47;;;;;;;1079.40;999.90;;;;;;;0.05;63.53;100200.94;692769;28;45251;-65
2021/12/03 00:40:11;;;;;;;1085.63;999.90;;;;;;;0.04;63.57;100212.53;692769;28;23487;-66
2021/12/03 00:40:36;;;;;;;1089.10;999.90;;;;;;;0.02;63.66;100202.03;690704;28;67495;-66
2021/12/03 00:40:57;;;;;;;1085.05;999.90;;;;;;;0.02;63.75;100207.34;690520;28;73598;-66
2021/12/03 00:41:20;;;;;;;1082.28;999.90;;;;;;;0.03;63.69;100208.19;691887;28;23407;-67
2021/12/03 00:41:46;;;;;;;1079.28;999.90;;;;;;;0.02;63.84;100212.66;690728;28;69364;-66
2021/12/03 00:42:09;;;;;;;1085.13;999.90;;;;;;;-0.05;63.65;100201.69;688411;28;138154;-66
2021/12/03 00:42:31;;;;;;;1077.55;999.90;;;;;;;-0.02;63.75;100204.09;689842;28;92753;-66
2021/12/03 00:42:52;;;;;;;1076.63;999.90;;;;;;;-0.05;63.79;100203.50;691711;28;21528;-66
2021/12/03 00:43:13;;;;;;;1080.43;999.90;;;;;;;-0.04;63.80;100200.72;692356;28;22347;-65
2021/12/03 00:43:40;;;;;;;1075.03;999.90;;;;;;;-0.03;63.85;100206.88;692261;28;22358;-65
2021/12/03 00:44:01;;;;;;;1082.00;999.90;;;;;;;-0.07;63.81;100200.94;688398;28;138158;-66
2021/12/03 00:44:25;;;;;;;1083.57;999.90;;;;;;;-0.10;63.81;100195.88;692365;28;22423;-66
2021/12/03 00:44:51;;;;;;;1077.20;999.90;;;;;;;-0.02;63.89;100204.09;690010;28;90978;-66
2021/12/03 00:45:13;;;;;;;1085.65;999.90;;;;;;;-0.05;63.89;100200.84;688493;28;137825;-67
2021/12/03 00:45:35;;;;;;;1090.75;999.90;;;;;;;-0.01;63.88;100204.94;691682;28;43668;-67
2021/12/03 00:46:04;;;;;;;1080.93;999.90;;;;;;;-0.03;63.82;100204.22;691997;28;46377;-67
2021/12/03 00:46:26;;;;;;;1085.15;999.90;;;;;;;-0.04;63.75;100206.03;688465;28;137933;-67
2021/12/03 00:46:47;;;;;;;1082.93;999.90;;;;;;;-0.06;63.79;100201.81;692807;28;909;-67
2021/12/03 00:47:08;;;;;;;1090.82;999.90;;;;;;;-0.05;63.90;100206.13;692582;28;22394;-67
2021/12/03 00:47:29;;;;;;;1087.13;999.90;;;;;;;-0.06;63.89;100207.13;692097;28;22233;-67
2021/12/03 00:47:51;;;;;;;1090.93;999.90;;;;;;;-0.06;64.04;100201.81;690630;28;22395;-67
2021/12/03 00:48:13;;;;;;;1089.53;999.90;;;;;;;-0.05;64.03;100201.69;691451;28;45238;-67
2021/12/03 00:48:34;;;;;;;1093.15;999.90;;;;;;;-0.05;63.94;100204.34;691531;28;45240;-67
2021/12/03 00:48:55;;;;;;;1089.43;999.90;;;;;;;-0.05;64.05;100209.66;692476;28;22534;-67
2021/12/03 00:49:16;;;;;;;1084.43;999.90;;;;;;;-0.05;64.02;100208.78;692334;28;22413;-67
2021/12/03 00:49:39;;;;;;;1090.05;999.90;;;;;;;-0.04;63.84;100205.19;692435;28;21572;-67
2021/12/03 00:50:00;;;;;;;1087.10;999.90;;;;;;;-0.03;63.83;100207.72;691636;28;46292;-67
2021/12/03 00:50:23;;;;;;;1088.88;999.90;;;;;;;-0.07;63.95;100194.81;692614;28;18781;-67
2021/12/03 00:50:44;;;;;;;1086.93;999.90;;;;;;;-0.03;63.94;100198.91;690509;28;66578;-67
2021/12/03 00:51:07;;;;;;;1095.25;999.90;;;;;;;-0.03;63.90;100209.53;692281;28;23249;-67
2021/12/03 00:51:29;;;;;;;1089.13;999.90;;;;;;;-0.04;64.13;100207.84;687003;28;67470;-67
2021/12/03 00:51:50;;;;;;;1095.30;999.90;;;;;;;-0.05;63.86;100209.66;687283;28;46441;-67
2021/12/03 00:52:13;;;;;;;1099.88;999.90;;;;;;;-0.05;63.82;100207.00;687429;28;46343;-67
2021/12/03 00:52:34;;;;;;;1098.72;999.90;;;;;;;-0.06;63.97;100210.63;688453;28;44352;-67
2021/12/03 00:52:56;;;;;;;1100.80;999.90;;;;;;;-0.07;63.83;100208.91;666194;28;42176;-67
2021/12/03 00:53:17;;;;;;;1095.50;999.90;;;;;;;-0.08;63.97;100204.59;692630;28;46311;-67
2021/12/03 00:53:39;;;;;;;1099.18;999.90;;;;;;;-0.09;63.62;100205.53;693825;28;21503;-67
2021/12/03 00:54:00;;;;;;;1101.43;999.90;;;;;;;-0.09;63.88;100205.53;689231;28;67741;-67
2021/12/03 00:54:21;;;;;;;1097.85;999.90;;;;;;;-0.10;63.95;100211.81;692038;28;22506;-67
2021/12/03 00:54:43;;;;;;;1093.63;999.90;;;;;;;-0.15;64.06;100195.41;692191;28;23409;-67
2021/12/03 00:55:07;;;;;;;1095.38;999.90;;;;;;;-0.10;64.07;100205.66;692244;28;23479;-67
2021/12/03 00:55:30;;;;;;;1101.18;999.90;;;;;;;-0.16;64.23;100207.00;689392;28;90726;-67
2021/12/03 00:55:51;;;;;;;1103.35;999.90;;;;;;;-0.11;64.02;100206.63;690356;28;67455;-67
2021/12/03 00:56:12;;;;;;;1101.00;999.90;;;;;;;-0.10;64.10;100211.81;692430;28;21522;-67
2021/12/03 00:56:35;;;;;;;1098.60;999.90;;;;;;;-0.10;64.01;100211.81;691806;28;44411;-67
2021/12/03 00:56:56;;;;;;;1105.10;999.90;;;;;;;-0.12;64.17;100210.25;691461;28;44381;-67
2021/12/03 00:57:17;;;;;;;1106.78;999.90;;;;;;;-0.11;64.14;100206.63;692245;28;22435;-67
2021/12/03 00:57:38;;;;;;;1105.53;999.90;;;;;;;-0.12;64.28;100211.09;690978;28;21557;-67
2021/12/03 00:58:01;;;;;;;1102.03;999.90;;;;;;;-0.13;64.26;100204.09;691500;28;45230;-67
2021/12/03 00:58:22;;;;;;;1103.00;999.90;;;;;;;-0.09;64.20;100205.53;691258;28;45231;-67
2021/12/03 00:58:43;;;;;;;1106.03;999.90;;;;;;;-0.08;64.24;100203.72;692283;28;21594;-67
2021/12/03 00:59:04;;;;;;;1103.88;999.90;;;;;;;-0.07;64.34;100216.88;692336;28;23936;-67
2021/12/03 00:59:26;;;;;;;1104.13;999.90;;;;;;;-0.06;64.38;100210.63;692015;28;21558;-67
2021/12/03 00:59:48;;;;;;;1103.43;999.90;;;;;;;-0.06;64.21;100213.28;692348;28;21556;-67
2021/12/03 01:00:12;;;;;;;1109.10;999.90;;;;;;;-0.05;64.32;100206.13;690848;28;45049;-67
2021/12/03 01:00:34;;;;;;;1103.95;999.90;;;;;;;-0.05;64.39;100209.66;688841;28;115058;-67
2021/12/03 01:00:55;;;;;;;1099.05;999.90;;;;;;;-0.05;64.25;100211.44;692280;28;22373;-66
2021/12/03 01:01:18;;;;;;;1103.30;999.90;;;;;;;-0.07;64.42;100200.13;691752;28;46482;-66
2021/12/03 01:01:39;;;;;;;1103.60;999.90;;;;;;;-0.01;64.18;100219.06;690381;28;69949;-66
2021/12/03 01:02:01;;;;;;;1103.80;999.90;;;;;;;0.00;64.07;100214.59;692036;28;22364;-66
2021/12/03 01:02:22;;;;;;;1109.63;999.90;;;;;;;0.01;64.07;100210.13;691342;28;45321;-66
2021/12/03 01:02:44;;;;;;;1111.70;999.90;;;;;;;0.02;64.03;100217.97;691741;28;22666;-67
2021/12/03 01:03:06;;;;;;;1105.05;999.90;;;;;;;0.04;64.14;100215.19;690508;28;43742;-67
2021/12/03 01:03:28;;;;;;;1112.55;999.90;;;;;;;0.04;64.11;100207.22;691052;28;45321;-67
2021/12/03 01:03:49;;;;;;;1112.55;999.90;;;;;;;0.03;63.81;100210.84;690984;28;47664;-67
2021/12/03 01:04:11;;;;;;;1108.47;999.90;;;;;;;0.02;63.95;100206.50;692028;28;21143;-67
2021/12/03 01:04:32;;;;;;;1107.05;999.90;;;;;;;0.02;63.87;100212.66;686385;28;46419;-67
2021/12/03 01:04:54;;;;;;;1114.25;999.90;;;;;;;-0.01;63.90;100215.56;689593;28;947;-67
2021/12/03 01:05:16;;;;;;;1107.10;999.90;;;;;;;-0.01;63.95;100211.09;691648;28;22397;-66
2021/12/03 01:05:38;;;;;;;1109.32;999.90;;;;;;;-0.02;63.95;100206.75;690032;28;45011;-66
2021/12/03 01:05:59;;;;;;;1106.75;999.90;;;;;;;-0.02;63.79;100214.72;688074;28;44382;-66
2021/12/03 01:06:20;;;;;;;1103.70;999.90;;;;;;;-0.03;63.90;100215.69;690009;28;22177;-67
2021/12/03 01:06:45;;;;;;;1103.18;999.90;;;;;;;-0.03;63.85;100218.34;689125;28;92128;-66
2021/12/03 01:07:07;;;;;;;1102.18;999.90;;;;;;;-0.02;63.96;100212.06;690041;28;67462;-66
2021/12/03 01:07:28;;;;;;;1099.38;999.90;;;;;;;-0.01;63.90;100218.22;691030;28;46340;-66
2021/12/03 01:07:50;;;;;;;1110.10;999.90;;;;;;;-0.02;63.79;100220.03;690726;28;21518;-67
2021/12/03 01:08:11;;;;;;;1105.03;999.90;;;;;;;-0.03;63.98;100213.03;691847;28;22060;-67
2021/12/03 01:08:35;;;;;;;1107.53;999.90;;;;;;;-0.04;63.86;100221.13;692013;28;21524;-67
2021/12/03 01:08:56;;;;;;;1106.63;999.90;;;;;;;-0.04;63.97;100219.28;688507;28;115113;-67
2021/12/03 01:09:18;;;;;;;1108.07;999.90;;;;;;;-0.05;64.12;100214.97;691883;28;22408;-67
2021/12/03 01:09:39;;;;;;;1099.43;999.90;;;;;;;-0.05;63.89;100217.63;691955;28;23527;-66
2021/12/03 01:10:01;;;;;;;1103.43;999.90;;;;;;;-0.04;64.15;100213.16;691657;28;23406;-66
2021/12/03 01:10:23;;;;;;;1100.88;999.90;;;;;;;-0.02;63.97;100217.38;690744;28;46295;-66
2021/12/03 01:10:44;;;;;;;1105.13;999.90;;;;;;;-0.03;63.92;100218.34;691519;28;44396;-66
2021/12/03 01:11:07;;;;;;;1087.47;999.90;;;;;;;-0.02;63.83;100222.69;691509;28;46453;-66
2021/12/03 01:11:28;;;;;;;1087.80;999.90;;;;;;;-0.03;63.90;100213.03;689485;28;66346;-66
2021/12/03 01:11:50;;;;;;;1085.07;999.90;;;;;;;-0.02;63.97;100221.81;685099;28;23476;-66
2021/12/03 01:12:11;;;;;;;1087.13;999.90;;;;;;;-0.05;64.00;100222.94;684573;28;46417;-66
2021/12/03 01:12:33;;;;;;;1083.57;999.90;;;;;;;-0.06;64.17;100213.28;685502;28;22393;-66
2021/12/03 01:12:55;;;;;;;1086.32;999.90;;;;;;;-0.07;64.04;100219.53;684389;28;24113;-67
2021/12/03 01:13:16;;;;;;;1084.05;999.90;;;;;;;-0.07;64.08;100222.19;683480;28;69337;-67
2021/12/03 01:13:40;;;;;;;1083.85;999.90;;;;;;;-0.06;64.12;100225.72;686518;28;21538;-66
2021/12/03 01:14:02;;;;;;;1085.30;999.90;;;;;;;-0.08;64.08;100219.66;684426;28;69388;-66
2021/12/03 01:14:23;;;;;;;1085.20;999.90;;;;;;;-0.10;64.10;100219.78;685031;28;59198;-67
2021/12/03 01:14:44;;;;;;;1083.45;999.90;;;;;;;-0.12;64.10;100219.06;686545;28;22378;-67
2021/12/03 01:15:09;;;;;;;1089.25;999.90;;;;;;;-0.15;64.03;100214.00;686648;28;22374;-66
2021/12/03 01:15:34;;;;;;;1093.10;999.90;;;;;;;-0.13;64.17;100222.69;683321;28;105195;-66
2021/12/03 01:15:56;;;;;;;1086.07;999.90;;;;;;;-0.19;64.17;100215.19;683492;28;115194;-66
2021/12/03 01:16:18;;;;;;;1079.60;999.90;;;;;;;-0.17;64.16;100212.41;685980;28;47522;-66
2021/12/03 01:16:40;;;;;;;1070.03;997.22;;;;;;;-0.17;64.25;100210.63;686097;28;44399;-66
2021/12/03 01:17:01;;;;;;;1071.32;998.60;;;;;;;-0.17;64.37;100221.25;685865;28;45269;-66
2021/12/03 01:17:22;;;;;;;1076.45;999.90;;;;;;;-0.19;64.35;100217.84;685046;28;22731;-67
2021/12/03 01:17:43;;;;;;;1074.43;999.90;;;;;;;-0.20;64.37;100216.19;684952;28;22423;-67
2021/12/03 01:18:06;;;;;;;1066.45;993.75;;;;;;;-0.19;64.54;100217.84;686698;28;21652;-67
2021/12/03 01:18:27;;;;;;;1058.13;985.83;;;;;;;-0.21;64.53;100215.31;684893;28;69254;-67
2021/12/03 01:18:51;;;;;;;1057.22;985.05;;;;;;;-0.21;64.22;100225.94;684858;28;38900;-67
2021/12/03 01:19:13;;;;;;;1052.22;980.20;;;;;;;-0.22;64.40;100231.34;686402;28;22381;-66
2021/12/03 01:19:35;;;;;;;1059.38;987.05;;;;;;;-0.22;64.56;100226.91;686932;28;23856;-66
2021/12/03 01:19:56;;;;;;;1060.28;987.92;;;;;;;-0.21;64.51;100222.44;685961;28;46294;-67
2021/12/03 01:20:17;;;;;;;1064.60;992.20;;;;;;;-0.18;64.47;100219.53;687055;28;23367;-67
2021/12/03 01:20:41;;;;;;;1069.13;996.50;;;;;;;-0.18;64.53;100230.16;686220;28;46394;-67
2021/12/03 01:21:04;;;;;;;1063.97;991.53;;;;;;;-0.19;64.44;100226.66;685330;28;69420;-67
2021/12/03 01:21:25;;;;;;;1063.35;990.95;;;;;;;-0.19;64.56;100226.66;684210;28;69396;-67
2021/12/03 01:21:48;;;;;;;1066.78;994.25;;;;;;;-0.18;64.41;100235.47;683717;28;44362;-67
2021/12/03 01:22:09;;;;;;;1065.88;993.30;;;;;;;-0.17;64.39;100223.03;682385;28;70294;-67
2021/12/03 01:22:30;;;;;;;1073.45;999.70;;;;;;;-0.16;64.46;100230.88;684007;28;21283;-67
2021/12/03 01:22:54;;;;;;;1069.75;996.92;;;;;;;-0.15;64.54;100227.25;681936;28;22387;-67
2021/12/03 01:23:15;;;;;;;1058.85;986.63;;;;;;;-0.16;64.39;100225.56;683659;28;70126;-67
2021/12/03 01:23:37;;;;;;;1055.00;983.03;;;;;;;-0.17;64.49;100234.50;686736;28;22377;-67
2021/12/03 01:23:59;;;;;;;1062.10;989.67;;;;;;;-0.16;64.42;100222.91;686805;28;45025;-67
2021/12/03 01:24:20;;;;;;;1065.15;992.67;;;;;;;-0.15;64.27;100223.78;686385;28;43791;-67
2021/12/03 01:24:41;;;;;;;1071.13;998.35;;;;;;;-0.16;64.34;100220.25;683985;28;22942;-67
2021/12/03 01:25:03;;;;;;;1079.47;999.90;;;;;;;-0.14;64.37;100221.00;683598;28;46387;-67
2021/12/03 01:25:26;;;;;;;1082.22;999.90;;;;;;;-0.13;64.30;100220.00;685823;28;43195;-67
2021/12/03 01:25:47;;;;;;;1084.32;999.90;;;;;;;-0.11;64.21;100223.41;685495;28;69946;-67
2021/12/03 01:26:08;;;;;;;1091.88;999.90;;;;;;;-0.11;64.26;100219.91;687742;28;22400;-67
2021/12/03 01:26:30;;;;;;;1088.43;999.90;;;;;;;-0.14;64.33;100214.81;690566;28;21521;-66
2021/12/03 01:26:54;;;;;;;1094.03;999.90;;;;;;;-0.14;64.31;100210.38;692441;28;23476;-66
2021/12/03 01:27:15;;;;;;;1093.30;999.90;;;;;;;-0.13;64.23;100214.72;687165;28;115130;-66
2021/12/03 01:27:37;;;;;;;1092.60;999.90;;;;;;;-0.13;64.31;100216.53;685696;28;23393;-66
2021/12/03 01:27:59;;;;;;;1098.93;999.90;;;;;;;-0.13;64.21;100212.06;687140;28;24532;-65
2021/12/03 01:28:22;;;;;;;1093.78;999.90;;;;;;;-0.14;64.34;100218.34;686309;28;47499;-66
2021/12/03 01:28:43;;;;;;;1096.10;999.90;;;;;;;-0.13;64.29;100213.88;685612;28;70631;-66
2021/12/03 01:29:04;;;;;;;1091.53;999.90;;;;;;;-0.13;64.30;100217.38;687164;28;22388;-65
2021/12/03 01:29:29;;;;;;;1094.45;999.90;;;;;;;-0.12;64.25;100218.22;686507;28;36743;-65
2021/12/03 01:29:51;;;;;;;1098.70;999.90;;;;;;;-0.14;64.18;100213.03;687347;28;21551;-67
2021/12/03 01:30:14;;;;;;;1096.45;999.90;;;;;;;-0.15;64.18;100221.13;686648;28;46315;-65
2021/12/03 01:30:36;;;;;;;1099.75;999.90;;;;;;;-0.15;64.25;100215.81;685781;28;66243;-66
2021/12/03 01:30:59;;;;;;;1095.57;999.90;;;;;;;-0.18;64.18;100214.22;685365;28;70311;-66
2021/12/03 01:31:21;;;;;;;1098.45;999.90;;;;;;;-0.21;64.38;100211.81;688819;28;20510;-66
2021/12/03 01:31:42;;;;;;;1093.53;999.90;;;;;;;-0.19;64.42;100209.88;687611;28;47107;-67
2021/12/03 01:32:04;;;;;;;1086.65;999.90;;;;;;;-0.20;64.28;100213.53;688781;28;23486;-65
2021/12/03 01:32:25;;;;;;;1080.82;999.90;;;;;;;-0.19;64.49;100212.53;689525;28;1610;-66
2021/12/03 01:32:52;;;;;;;1079.57;999.90;;;;;;;-0.20;64.50;100208.22;686146;28;60671;-66
2021/12/03 01:33:13;;;;;;;1081.82;999.90;;;;;;;-0.19;64.37;100213.41;686567;28;44695;-66
2021/12/03 01:33:34;;;;;;;1082.18;999.90;;;;;;;-0.16;64.42;100214.13;685568;28;22371;-66
2021/12/03 01:33:55;;;;;;;1082.63;999.90;;;;;;;-0.19;64.58;100210.75;686414;28;903;-66
2021/12/03 01:34:18;;;;;;;1084.55;999.90;;;;;;;-0.17;64.58;100213.28;685984;28;20081;-66
2021/12/03 01:34:39;;;;;;;1086.00;999.90;;;;;;;-0.15;64.64;100215.81;684789;28;45229;-66
2021/12/03 01:35:00;;;;;;;1091.25;999.90;;;;;;;-0.15;64.47;100219.31;685826;28;21502;-66
2021/12/03 01:35:21;;;;;;;1095.88;999.90;;;;;;;-0.16;64.57;100208.81;686985;28;23538;-66
2021/12/03 01:35:43;;;;;;;1093.32;999.90;;;;;;;-0.15;64.60;100216.66;686706;28;20745;-66
2021/12/03 01:36:05;;;;;;;1091.95;999.90;;;;;;;-0.14;64.49;100213.03;685852;28;54641;-66
2021/12/03 01:36:26;;;;;;;1094.30;999.90;;;;;;;-0.14;64.58;100214.81;686795;28;23411;-66
2021/12/03 01:36:48;;;;;;;1094.50;999.90;;;;;;;-0.15;64.45;100214.00;687256;28;21553;-66
2021/12/03 01:37:10;;;;;;;1097.35;999.90;;;;;;;-0.15;64.61;100216.66;685356;28;67469;-66
2021/12/03 01:37:32;;;;;;;1100.80;999.90;;;;;;;-0.15;64.51;100213.16;685903;28;44400;-66
2021/12/03 01:37:53;;;;;;;1104.00;999.90;;;;;;;-0.16;64.52;100209.63;690497;28;23448;-66
2021/12/03 01:38:14;;;;;;;1107.30;999.90;;;;;;;-0.17;64.47;100209.75;692488;28;22399;-66
2021/12/03 01:38:36;;;;;;;1094.22;999.90;;;;;;;-0.18;64.38;100216.88;692357;28;21549;-66